Time;durP1;ratioP1;P1;durP2;ratioP2;P2;SDS_P1;SDS_P2;PMS_P1;PMS_P2;Temp;Humidity;BMP_temperature;BMP_pressure;BME280_temperature;BME280_humidity;BME280_pressure;Samples;Min_cycle;Max_cycle;Signal;HPM_P1;HPM_P2
2024/01/12 00:01:51;;;;;;;31.60;19.47;;;;;;;2.11;100.00;103290.63;5254509;28;20039;-74
2024/01/12 00:04:23;;;;;;;29.90;19.05;;;;;;;2.21;100.00;103298.31;5253319;28;20028;-76
2024/01/12 00:06:55;;;;;;;33.58;20.13;;;;;;;2.16;100.00;103304.38;5254707;28;20045;-77
2024/01/12 00:09:27;;;;;;;32.47;19.58;;;;;;;2.17;100.00;103300.06;5252207;28;20524;-74
2024/01/12 00:11:59;;;;;;;30.40;19.48;;;;;;;2.17;100.00;103311.25;5255858;28;20033;-76
2024/01/12 00:14:31;;;;;;;32.83;19.80;;;;;;;2.18;100.00;103309.53;5255729;28;20478;-75
2024/01/12 00:17:03;;;;;;;31.52;20.00;;;;;;;2.16;100.00;103308.72;5254938;28;20037;-78
2024/01/12 00:19:35;;;;;;;28.05;19.25;;;;;;;2.18;100.00;103315.56;5252726;28;20036;-75
2024/01/12 00:22:06;;;;;;;30.95;19.52;;;;;;;2.10;100.00;103296.69;5256397;28;20359;-75
2024/01/12 00:24:38;;;;;;;30.00;19.65;;;;;;;2.12;100.00;103296.66;5253504;28;20045;-75
2024/01/12 00:27:10;;;;;;;30.95;20.50;;;;;;;2.16;100.00;103293.19;5252799;28;20028;-80
2024/01/12 00:29:42;;;;;;;31.98;19.98;;;;;;;2.27;100.00;103309.41;5254015;28;20055;-75
2024/01/12 00:32:14;;;;;;;36.00;20.60;;;;;;;2.26;100.00;103310.31;5253699;28;20033;-78
2024/01/12 00:34:46;;;;;;;28.15;18.35;;;;;;;2.24;100.00;103304.31;5252376;28;20040;-78
2024/01/12 00:37:18;;;;;;;32.35;19.85;;;;;;;2.16;100.00;103294.03;5255778;28;20025;-75
2024/01/12 00:39:50;;;;;;;28.48;18.63;;;;;;;2.26;100.00;103299.09;5255762;28;20378;-74
2024/01/12 00:42:22;;;;;;;30.35;20.05;;;;;;;2.28;100.00;103310.31;5269529;28;20039;-75
2024/01/12 00:44:54;;;;;;;30.45;19.27;;;;;;;2.24;100.00;103291.38;5254591;28;20017;-75
2024/01/12 00:47:26;;;;;;;29.58;19.13;;;;;;;2.30;100.00;103303.38;5254704;28;20052;-75
2024/01/12 00:49:58;;;;;;;31.70;19.77;;;;;;;2.32;100.00;103309.41;5254513;28;20048;-75
2024/01/12 00:52:29;;;;;;;29.45;19.67;;;;;;;2.27;100.00;103312.00;5254283;28;20036;-75
2024/01/12 00:55:03;;;;;;;32.38;20.08;;;;;;;2.28;100.00;103312.91;5253858;28;20395;-76
2024/01/12 00:57:34;;;;;;;28.27;18.50;;;;;;;2.30;100.00;103317.16;5254016;28;20029;-75
2024/01/12 01:00:07;;;;;;;28.88;18.75;;;;;;;2.29;100.00;103314.59;5256338;28;20031;-75
2024/01/12 01:02:39;;;;;;;30.47;20.80;;;;;;;2.35;100.00;103315.41;5262353;28;20029;-75
2024/01/12 01:05:11;;;;;;;28.52;19.10;;;;;;;2.32;100.00;103324.91;5265501;28;20033;-76
2024/01/12 01:07:43;;;;;;;29.70;19.90;;;;;;;2.32;100.00;103328.38;5258490;28;20445;-74
2024/01/12 01:10:15;;;;;;;27.65;19.10;;;;;;;2.27;100.00;103319.78;5258019;28;20077;-74
2024/01/12 01:12:47;;;;;;;30.20;19.48;;;;;;;2.25;100.00;103316.34;5258394;28;20390;-75
2024/01/12 01:15:19;;;;;;;29.05;18.35;;;;;;;2.25;100.00;103316.34;5259022;28;20033;-75
2024/01/12 01:17:51;;;;;;;29.80;19.02;;;;;;;2.22;100.00;103298.28;5257572;28;20027;-75
2024/01/12 01:20:23;;;;;;;27.05;17.98;;;;;;;2.25;100.00;103316.34;5257362;28;20532;-75
2024/01/12 01:22:55;;;;;;;26.58;17.67;;;;;;;2.27;100.00;103324.09;5258340;28;20041;-75
2024/01/12 01:25:27;;;;;;;26.70;18.17;;;;;;;2.26;100.00;103330.16;5257400;28;20024;-78
2024/01/12 01:28:00;;;;;;;30.30;18.98;;;;;;;2.24;100.00;103330.16;5259069;28;20048;-75
2024/01/12 01:30:32;;;;;;;28.92;18.33;;;;;;;2.28;100.00;103336.19;5257322;28;20033;-75
2024/01/12 01:33:04;;;;;;;30.23;18.90;;;;;;;2.24;100.00;103334.50;5256708;28;20056;-78
2024/01/12 01:35:36;;;;;;;29.30;18.85;;;;;;;2.25;100.00;103336.19;5256806;28;20041;-75
2024/01/12 01:38:08;;;;;;;29.98;19.38;;;;;;;2.11;100.00;103325.97;5256602;28;20040;-76
2024/01/12 01:40:40;;;;;;;32.05;20.63;;;;;;;2.26;100.00;103349.09;5256943;28;20056;-76
2024/01/12 01:43:12;;;;;;;28.08;18.30;;;;;;;2.21;100.00;103348.31;5256973;28;20035;-76
2024/01/12 01:45:44;;;;;;;31.33;19.90;;;;;;;2.26;100.00;103356.88;5257655;28;20029;-76
2024/01/12 01:48:16;;;;;;;26.77;18.08;;;;;;;2.27;100.00;103368.06;5256791;28;20392;-76
2024/01/12 01:50:48;;;;;;;28.13;18.13;;;;;;;2.25;100.00;103367.25;5257319;28;20057;-76
2024/01/12 01:53:21;;;;;;;29.00;18.85;;;;;;;2.25;100.00;103356.88;5256780;28;20029;-76
2024/01/12 01:55:53;;;;;;;29.02;18.80;;;;;;;2.25;100.00;103351.72;5255980;28;20033;-76
2024/01/12 01:58:25;;;;;;;31.40;19.15;;;;;;;2.23;100.00;103343.09;5253598;28;20403;-76
2024/01/12 02:00:57;;;;;;;29.92;19.80;;;;;;;2.27;100.00;103344.78;5258323;28;20446;-76
2024/01/12 02:03:31;;;;;;;29.07;20.83;;;;;;;2.26;100.00;103343.94;5256629;28;20037;-76
2024/01/12 02:06:03;;;;;;;30.33;19.88;;;;;;;2.26;100.00;103337.91;5253943;28;20024;-76
2024/01/12 02:08:36;;;;;;;30.02;19.98;;;;;;;2.31;100.00;103343.88;5254559;28;20501;-76
2024/01/12 02:11:08;;;;;;;27.85;19.02;;;;;;;2.33;100.00;103334.38;5255257;28;20048;-76
2024/01/12 02:13:41;;;;;;;27.95;19.23;;;;;;;2.31;100.00;103337.00;5256653;28;20068;-76
2024/01/12 02:16:13;;;;;;;27.90;18.13;;;;;;;2.30;100.00;103330.09;5256718;28;20033;-76
2024/01/12 02:18:45;;;;;;;31.60;19.85;;;;;;;2.27;100.00;103326.69;5253930;28;20036;-76
2024/01/12 02:21:17;;;;;;;27.58;18.00;;;;;;;2.27;100.00;103322.34;5256780;28;20029;-76
2024/01/12 02:23:48;;;;;;;28.92;19.23;;;;;;;2.26;100.00;103325.81;5256703;28;20037;-76
2024/01/12 02:26:21;;;;;;;31.35;20.23;;;;;;;2.21;100.00;103317.25;5256387;28;20371;-76
2024/01/12 02:28:53;;;;;;;29.15;19.80;;;;;;;2.28;100.00;103334.44;5253853;28;20067;-76
2024/01/12 02:31:25;;;;;;;30.88;19.42;;;;;;;2.23;100.00;103320.69;5252580;28;20076;-76
2024/01/12 02:33:57;;;;;;;29.65;19.77;;;;;;;2.25;100.00;103325.84;5260378;28;20045;-76
2024/01/12 02:36:29;;;;;;;29.55;19.42;;;;;;;2.30;100.00;103331.81;5271602;28;20044;-76
2024/01/12 02:39:01;;;;;;;30.50;19.98;;;;;;;2.30;100.00;103340.44;5254960;28;20393;-76
2024/01/12 02:41:33;;;;;;;31.33;19.92;;;;;;;2.31;100.00;103339.59;5256798;28;20021;-76
2024/01/12 02:44:05;;;;;;;28.42;19.35;;;;;;;2.29;100.00;103330.97;5255825;28;20033;-77
2024/01/12 02:46:36;;;;;;;31.42;20.70;;;;;;;2.31;100.00;103339.59;5256476;28;20032;-76
2024/01/12 02:49:08;;;;;;;29.08;18.65;;;;;;;2.21;100.00;103329.34;5254616;28;20394;-76
2024/01/12 02:51:40;;;;;;;29.10;19.08;;;;;;;2.25;100.00;103331.88;5256654;28;20028;-76
2024/01/12 02:54:12;;;;;;;32.65;19.33;;;;;;;2.24;100.00;103321.56;5256400;28;20040;-76
2024/01/12 02:56:44;;;;;;;29.88;19.45;;;;;;;2.14;100.00;103307.84;5253283;28;20040;-76
2024/01/12 02:59:16;;;;;;;29.10;19.95;;;;;;;2.22;100.00;103318.97;5253323;28;20032;-76
2024/01/12 03:01:48;;;;;;;29.25;19.27;;;;;;;2.24;100.00;103314.66;5251027;28;20031;-76
2024/01/12 03:04:20;;;;;;;29.70;19.08;;;;;;;2.23;100.00;103312.06;5247943;28;20028;-76
2024/01/12 03:06:52;;;;;;;29.23;19.75;;;;;;;2.24;100.00;103299.13;5259402;28;20027;-76
2024/01/12 03:09:24;;;;;;;34.30;20.30;;;;;;;2.18;100.00;103294.00;5253482;28;20375;-76
2024/01/12 03:11:55;;;;;;;33.03;20.58;;;;;;;2.21;100.00;103304.34;5254978;28;20033;-76
2024/01/12 03:14:29;;;;;;;;;;;;;;;2.79;100.00;103305.38;5253772;28;20067;-76
2024/01/12 03:17:01;;;;;;;30.98;19.08;;;;;;;2.30;100.00;103314.56;5252076;28;20267;-77
2024/01/12 03:19:32;;;;;;;28.83;18.10;;;;;;;2.24;100.00;103314.66;5250991;28;20244;-76
2024/01/12 03:22:04;;;;;;;30.40;19.13;;;;;;;2.24;100.00;103314.66;5255763;28;20048;-76
2024/01/12 03:24:36;;;;;;;32.75;20.02;;;;;;;2.21;100.00;103306.06;5254398;28;20033;-76
2024/01/12 03:27:08;;;;;;;30.60;19.67;;;;;;;2.24;100.00;103301.72;5249359;28;20035;-76
2024/01/12 03:29:40;;;;;;;29.52;19.25;;;;;;;2.26;100.00;103304.28;5250125;28;20067;-76
2024/01/12 03:32:12;;;;;;;31.38;19.98;;;;;;;2.22;100.00;103297.44;5255507;28;20096;-76
2024/01/12 03:34:44;;;;;;;28.08;19.15;;;;;;;2.23;100.00;103299.97;5255663;28;20504;-77
2024/01/12 03:37:16;;;;;;;30.58;20.10;;;;;;;2.23;100.00;103307.75;5254174;28;20021;-76
2024/01/12 03:39:48;;;;;;;29.83;19.27;;;;;;;2.23;100.00;103309.47;5252032;28;20033;-76
2024/01/12 03:42:20;;;;;;;31.00;19.50;;;;;;;2.27;100.00;103308.56;5256211;28;20079;-76
2024/01/12 03:44:52;;;;;;;32.85;20.70;;;;;;;2.25;100.00;103311.19;5255046;28;20028;-76
2024/01/12 03:47:24;;;;;;;30.27;20.60;;;;;;;2.22;100.00;103303.44;5256004;28;20255;-76
2024/01/12 03:49:56;;;;;;;30.92;19.58;;;;;;;2.24;100.00;103306.91;5254407;28;20048;-76
2024/01/12 03:52:27;;;;;;;31.83;19.50;;;;;;;2.23;100.00;103294.81;5255030;28;20056;-76
2024/01/12 03:54:59;;;;;;;29.85;19.95;;;;;;;2.25;100.00;103292.22;5254880;28;20041;-76
2024/01/12 03:57:31;;;;;;;29.05;19.70;;;;;;;2.17;100.00;103290.56;5254867;28;20029;-76
2024/01/12 04:00:05;;;;;;;34.80;21.40;;;;;;;2.24;100.00;103298.28;5254388;28;20035;-76
2024/01/12 04:02:37;;;;;;;31.48;18.20;;;;;;;2.25;100.00;103297.41;5253239;28;20032;-76
2024/01/12 04:05:09;;;;;;;29.80;18.90;;;;;;;2.25;100.00;103290.50;5252432;28;20033;-76
2024/01/12 04:07:41;;;;;;;31.33;19.92;;;;;;;2.21;100.00;103277.63;5253938;28;20021;-76
2024/01/12 04:10:13;;;;;;;31.13;19.80;;;;;;;2.24;100.00;103293.09;5253307;28;20036;-76
2024/01/12 04:12:45;;;;;;;29.27;19.17;;;;;;;2.23;100.00;103289.63;5251882;28;20040;-76
2024/01/12 04:15:17;;;;;;;31.08;20.40;;;;;;;2.19;100.00;103287.97;5254705;28;20047;-76
2024/01/12 04:17:49;;;;;;;32.25;19.00;;;;;;;2.17;100.00;103275.06;5253902;28;20032;-76
2024/01/12 04:20:21;;;;;;;28.92;19.73;;;;;;;2.22;100.00;103289.66;5255649;28;20033;-77
2024/01/12 04:22:53;;;;;;;29.60;19.02;;;;;;;2.24;100.00;103285.34;5254126;28;20028;-76
2024/01/12 04:25:25;;;;;;;29.63;19.63;;;;;;;2.21;100.00;103281.06;5254101;28;20044;-76
2024/01/12 04:27:57;;;;;;;30.73;20.45;;;;;;;2.26;100.00;103279.25;5252988;28;20036;-76
2024/01/12 04:30:29;;;;;;;31.27;20.17;;;;;;;2.17;100.00;103274.22;5255128;28;20474;-76
2024/01/12 04:33:00;;;;;;;28.17;19.20;;;;;;;2.18;100.00;103286.25;5254965;28;20052;-76
2024/01/12 04:35:32;;;;;;;31.55;20.48;;;;;;;2.21;100.00;103293.13;5253576;28;20035;-76
2024/01/12 04:38:04;;;;;;;28.50;19.45;;;;;;;2.23;100.00;103304.31;5255765;28;20029;-76
2024/01/12 04:40:36;;;;;;;33.35;20.83;;;;;;;2.21;100.00;103293.13;5255997;28;20037;-76
2024/01/12 04:43:08;;;;;;;38.35;20.35;;;;;;;2.13;100.00;103300.97;5259247;28;20033;-76
2024/01/12 04:45:40;;;;;;;32.05;20.83;;;;;;;2.14;100.00;103295.78;5271693;28;20051;-76
2024/01/12 04:48:12;;;;;;;32.88;20.27;;;;;;;2.18;100.00;103297.44;5255575;28;20056;-76
2024/01/12 04:50:44;;;;;;;31.25;19.88;;;;;;;2.19;100.00;103303.47;5256698;28;20460;-76
2024/01/12 04:53:16;;;;;;;39.65;20.70;;;;;;;2.18;100.00;103302.63;5259443;28;20028;-77
2024/01/12 04:55:48;;;;;;;30.33;19.42;;;;;;;2.19;100.00;103299.16;5257257;28;20390;-76
2024/01/12 04:58:20;;;;;;;33.42;19.27;;;;;;;2.18;100.00;103292.28;5256451;28;20039;-76
2024/01/12 05:00:52;;;;;;;31.55;20.23;;;;;;;2.22;100.00;103297.44;5254977;28;20032;-76
2024/01/12 05:03:24;;;;;;;30.90;19.88;;;;;;;2.16;100.00;103288.88;5258574;28;20028;-76
2024/01/12 05:05:56;;;;;;;33.95;20.95;;;;;;;2.15;100.00;103284.53;5258563;28;20033;-77
2024/01/12 05:08:28;;;;;;;28.63;20.20;;;;;;;2.19;100.00;103293.97;5254035;28;20029;-77
2024/01/12 05:11:00;;;;;;;30.05;19.30;;;;;;;2.18;100.00;103297.44;5255167;28;20036;-76
2024/01/12 05:13:32;;;;;;;27.92;19.02;;;;;;;2.18;100.00;103286.25;5255857;28;20045;-76
2024/01/12 05:16:04;;;;;;;32.13;18.95;;;;;;;2.15;100.00;103275.94;5255487;28;20553;-76
2024/01/12 05:18:36;;;;;;;29.30;19.13;;;;;;;2.22;100.00;103287.94;5260914;28;20532;-76
2024/01/12 05:21:08;;;;;;;28.50;18.45;;;;;;;2.19;100.00;103270.72;5258305;28;20017;-76
2024/01/12 05:23:44;;;;;;;30.67;17.98;;;;;;;2.21;100.00;103264.69;5256976;28;20043;-76
2024/01/12 05:26:16;;;;;;;27.42;18.17;;;;;;;2.10;100.00;103252.72;5257081;28;20029;-76
2024/01/12 05:28:47;;;;;;;31.48;19.95;;;;;;;2.16;100.00;103278.53;5257410;28;20036;-76
2024/01/12 05:31:20;;;;;;;28.58;18.98;;;;;;;2.19;100.00;103275.03;5257968;28;20390;-76
2024/01/12 05:33:51;;;;;;;30.33;19.52;;;;;;;2.17;100.00;103275.06;5257249;28;20033;-76
2024/01/12 05:36:23;;;;;;;30.83;19.10;;;;;;;2.21;100.00;103272.44;5256457;28;20032;-76
2024/01/12 05:38:55;;;;;;;29.63;18.80;;;;;;;2.18;100.00;103265.56;5257371;28;20119;-76
2024/01/12 05:41:27;;;;;;;29.25;18.33;;;;;;;2.20;100.00;103266.41;5257107;28;20397;-76
2024/01/12 05:43:59;;;;;;;29.63;19.02;;;;;;;2.27;100.00;103269.78;5255887;28;20040;-76
2024/01/12 05:46:31;;;;;;;27.13;17.13;;;;;;;2.26;100.00;103270.66;5256537;28;20029;-76
2024/01/12 05:49:04;;;;;;;25.73;16.70;;;;;;;2.26;100.00;103278.41;5256402;28;20056;-76
2024/01/12 05:51:36;;;;;;;29.88;18.15;;;;;;;2.30;100.00;103274.91;5257190;28;20039;-76
2024/01/12 05:54:08;;;;;;;26.58;18.35;;;;;;;2.26;100.00;103279.25;5257121;28;20029;-76
2024/01/12 05:56:40;;;;;;;25.50;17.13;;;;;;;2.33;100.00;103291.25;5255992;28;20486;-76
2024/01/12 05:59:11;;;;;;;29.65;16.92;;;;;;;2.29;100.00;103294.75;5257392;28;20028;-76
2024/01/12 06:01:43;;;;;;;27.13;16.65;;;;;;;2.32;100.00;103297.31;5257628;28;20033;-75
2024/01/12 06:04:15;;;;;;;26.63;16.25;;;;;;;2.32;100.00;103283.53;5255586;28;20043;-77
2024/01/12 06:06:48;;;;;;;29.92;17.42;;;;;;;2.29;100.00;103283.56;5258040;28;20028;-76
2024/01/12 06:09:20;;;;;;;29.05;17.05;;;;;;;2.26;100.00;103289.63;5257241;28;20031;-76
2024/01/12 06:11:52;;;;;;;27.95;15.75;;;;;;;2.32;100.00;103304.22;5256913;28;21053;-77
2024/01/12 06:14:24;;;;;;;24.02;15.68;;;;;;;2.26;100.00;103292.19;5256850;28;20029;-77
2024/01/12 06:16:56;;;;;;;30.05;16.05;;;;;;;2.31;100.00;103297.31;5257168;28;20519;-77
2024/01/12 06:19:27;;;;;;;35.72;16.48;;;;;;;2.33;100.00;103295.59;5256061;28;20024;-77
2024/01/12 06:21:59;;;;;;;24.63;14.93;;;;;;;2.23;100.00;103278.44;5257362;28;20027;-77
2024/01/12 06:24:31;;;;;;;26.48;15.02;;;;;;;2.32;100.00;103297.31;5253274;28;20040;-77
2024/01/12 06:27:04;;;;;;;25.73;15.23;;;;;;;2.28;100.00;103287.88;5252973;28;20029;-77
2024/01/12 06:29:36;;;;;;;27.02;15.77;;;;;;;2.35;100.00;103304.16;5252075;28;20041;-77
2024/01/12 06:32:09;;;;;;;27.98;16.42;;;;;;;2.31;100.00;103290.44;5251470;28;20029;-77
2024/01/12 06:34:41;;;;;;;24.05;14.32;;;;;;;2.41;100.00;103310.13;5247336;28;20052;-77
2024/01/12 06:37:13;;;;;;;24.17;15.43;;;;;;;2.40;100.00;103316.19;5254268;28;20045;-77
2024/01/12 06:39:44;;;;;;;24.58;14.77;;;;;;;2.41;100.00;103309.28;5254926;28;20482;-77
2024/01/12 06:42:17;;;;;;;27.85;15.35;;;;;;;2.42;100.00;103317.06;5255698;28;20029;-77
2024/01/12 06:44:49;;;;;;;21.00;13.38;;;;;;;2.37;100.00;103305.88;5270199;28;20048;-77
2024/01/12 06:47:21;;;;;;;24.92;14.38;;;;;;;2.43;100.00;103313.59;5253873;28;20466;-77
2024/01/12 06:49:54;;;;;;;26.17;15.48;;;;;;;2.47;100.00;103314.41;5254646;28;20052;-77
2024/01/12 06:52:26;;;;;;;23.87;14.03;;;;;;;2.44;100.00;103312.69;5254144;28;20493;-77
2024/01/12 06:54:58;;;;;;;21.70;13.35;;;;;;;2.42;100.00;103322.22;5253136;28;20329;-77
2024/01/12 06:57:30;;;;;;;21.55;13.77;;;;;;;2.42;100.00;103318.75;5251424;28;20494;-77
2024/01/12 07:00:04;;;;;;;24.30;14.45;;;;;;;2.49;100.00;103327.31;5252097;28;20033;-77
2024/01/12 07:02:36;;;;;;;25.85;13.68;;;;;;;2.48;100.00;103326.47;5248763;28;20040;-77
2024/01/12 07:05:08;;;;;;;21.02;12.98;;;;;;;2.48;100.00;103320.44;5243556;28;20383;-77
2024/01/12 07:07:42;;;;;;;23.70;13.52;;;;;;;2.48;100.00;103323.88;5253553;28;20044;-75
2024/01/12 07:10:14;;;;;;;24.10;13.82;;;;;;;2.40;100.00;103310.16;5250733;28;20028;-75
2024/01/12 07:12:47;;;;;;;20.60;13.18;;;;;;;2.39;100.00;103295.53;5250789;28;20044;-75
2024/01/12 07:15:20;;;;;;;24.55;13.52;;;;;;;2.57;100.00;103317.72;5255265;28;20878;-77
2024/01/12 07:17:52;;;;;;;19.00;12.25;;;;;;;2.61;100.00;103316.81;5255513;28;20049;-77
2024/01/12 07:20:24;;;;;;;20.35;11.68;;;;;;;2.53;100.00;103316.06;5256250;28;20037;-77
2024/01/12 07:22:55;;;;;;;23.35;12.85;;;;;;;2.53;100.00;103301.38;5254664;28;20504;-77
2024/01/12 07:25:28;;;;;;;20.88;11.20;;;;;;;2.56;100.00;103300.50;5255859;28;20037;-75
2024/01/12 07:28:02;;;;;;;26.35;13.02;;;;;;;2.54;100.00;103294.47;5254857;28;20033;-75
2024/01/12 07:30:36;;;;;;;22.08;11.82;;;;;;;2.55;100.00;103291.88;5252553;28;20057;-75
2024/01/12 07:33:09;;;;;;;24.70;10.65;;;;;;;2.51;100.00;103279.84;5250116;28;20048;-75
2024/01/12 07:35:40;;;;;;;20.85;10.52;;;;;;;2.56;100.00;103290.16;5253906;28;20028;-75
2024/01/12 07:38:12;;;;;;;22.90;10.40;;;;;;;2.60;100.00;103291.81;5257599;22;20049;-75
2024/01/12 07:40:44;;;;;;;18.80;10.18;;;;;;;2.64;100.00;103290.91;5220528;28;20370;-75
2024/01/12 07:43:16;;;;;;;22.35;11.15;;;;;;;2.66;100.00;103289.16;5225724;28;20037;-77
2024/01/12 07:45:48;;;;;;;20.85;10.68;;;;;;;2.65;100.00;103282.25;5226545;28;20079;-76
2024/01/12 07:48:21;;;;;;;17.65;10.43;;;;;;;2.73;100.00;103289.91;5229267;28;20021;-78
2024/01/12 07:50:53;;;;;;;16.52;9.63;;;;;;;2.71;100.00;103289.09;5231120;28;20037;-77
2024/01/12 07:53:24;;;;;;;17.85;9.77;;;;;;;2.72;100.00;103293.41;5227172;28;20037;-77
2024/01/12 07:55:57;;;;;;;19.83;10.32;;;;;;;2.71;100.00;103292.53;5232868;28;20048;-78
2024/01/12 07:58:29;;;;;;;20.60;10.98;;;;;;;2.75;100.00;103295.94;5233745;28;20041;-78
2024/01/12 08:01:01;;;;;;;22.15;10.48;;;;;;;2.76;100.00;103282.97;5232280;28;21286;-78
2024/01/12 08:03:33;;;;;;;19.17;10.20;;;;;;;2.79;100.00;103284.69;5224977;28;20461;-77
2024/01/12 08:06:05;;;;;;;20.10;10.27;;;;;;;2.80;100.00;103286.38;5228935;28;20052;-77
2024/01/12 08:08:37;;;;;;;21.98;11.13;;;;;;;2.81;100.00;103285.53;5230022;28;20030;-77
2024/01/12 08:11:09;;;;;;;21.10;11.93;;;;;;;2.84;100.00;103288.94;5232416;28;20052;-78
2024/01/12 08:13:41;;;;;;;18.75;9.95;;;;;;;2.84;100.00;103293.22;5233354;28;20036;-78
2024/01/12 08:16:13;;;;;;;19.23;10.57;;;;;;;2.85;100.00;103295.81;5233002;28;20031;-77
2024/01/12 08:18:45;;;;;;;22.88;11.82;;;;;;;2.85;100.00;103300.16;5232502;28;21639;-78
2024/01/12 08:21:16;;;;;;;18.95;12.05;;;;;;;2.88;100.00;103305.28;5232156;28;20033;-76
2024/01/12 08:23:48;;;;;;;21.52;10.75;;;;;;;2.86;100.00;103296.66;5227350;28;20041;-76
2024/01/12 08:26:21;;;;;;;20.75;11.35;;;;;;;2.86;100.00;103299.25;5223370;28;20060;-76
2024/01/12 08:28:55;;;;;;;23.08;10.32;;;;;;;2.86;100.00;103297.53;5228661;28;20059;-77
2024/01/12 08:31:28;;;;;;;20.17;10.40;;;;;;;2.86;100.00;103296.66;5230905;28;20582;-76
2024/01/12 08:34:00;;;;;;;22.70;11.57;;;;;;;2.87;100.00;103300.97;5230194;28;20064;-77
2024/01/12 08:36:32;;;;;;;19.35;10.50;;;;;;;2.89;100.00;103304.41;5230303;28;20394;-77
2024/01/12 08:39:04;;;;;;;19.63;10.77;;;;;;;2.92;100.00;103304.38;5231500;28;20053;-77
2024/01/12 08:41:36;;;;;;;17.67;10.80;;;;;;;2.86;100.00;103297.53;5229803;28;20443;-76
2024/01/12 08:44:08;;;;;;;21.95;11.27;;;;;;;2.92;100.00;103309.53;5230742;28;20282;-77
2024/01/12 08:46:40;;;;;;;17.20;11.13;;;;;;;2.89;100.00;103305.25;5230530;28;20033;-76
2024/01/12 08:49:12;;;;;;;20.83;11.82;;;;;;;2.95;100.00;103319.00;5229259;28;20045;-77
2024/01/12 08:51:44;;;;;;;22.20;11.73;;;;;;;2.98;100.00;103308.59;5245977;28;20479;-77
2024/01/12 08:54:16;;;;;;;21.83;11.95;;;;;;;2.99;100.00;103311.16;5230006;28;20634;-77
2024/01/12 08:56:48;;;;;;;22.88;11.70;;;;;;;3.01;100.00;103309.41;5228152;28;20063;-77
2024/01/12 08:59:20;;;;;;;24.73;11.75;;;;;;;3.00;100.00;103306.84;5227725;28;20037;-77
2024/01/12 09:01:52;;;;;;;22.05;12.20;;;;;;;3.06;100.00;103307.59;5230869;28;20478;-77
2024/01/12 09:04:27;;;;;;;24.67;11.77;;;;;;;3.11;100.00;103308.41;5227100;28;20029;-77
2024/01/12 09:06:59;;;;;;;21.00;10.90;;;;;;;3.09;100.00;103298.94;5229857;28;20033;-76
2024/01/12 09:09:30;;;;;;;21.63;11.00;;;;;;;3.15;100.00;103306.66;5243672;28;20608;-77
2024/01/12 09:12:03;;;;;;;20.90;11.68;;;;;;;3.07;100.00;103311.94;5219482;28;20033;-77
2024/01/12 09:14:34;;;;;;;18.77;11.27;;;;;;;3.11;100.00;103310.16;5228114;28;20406;-77
2024/01/12 09:17:06;;;;;;;19.27;11.02;;;;;;;3.07;100.00;103301.56;5229760;28;20036;-77
2024/01/12 09:19:38;;;;;;;22.98;12.25;;;;;;;3.13;100.00;103313.56;5227102;28;20041;-77
2024/01/12 09:22:11;;;;;;;19.45;11.85;;;;;;;3.18;100.00;103306.56;5229782;28;20033;-77
2024/01/12 09:24:43;;;;;;;19.15;10.70;;;;;;;3.20;100.00;103307.41;5224360;28;20493;-77
2024/01/12 09:27:15;;;;;;;24.77;11.18;;;;;;;3.22;100.00;103309.97;5227825;28;20045;-77
2024/01/12 09:29:47;;;;;;;23.10;10.77;;;;;;;3.25;100.00;103309.94;5227341;28;20033;-77
2024/01/12 09:32:19;;;;;;;25.33;10.85;;;;;;;3.29;100.00;103309.88;5230676;28;20095;-78
2024/01/12 09:34:51;;;;;;;20.67;11.27;;;;;;;3.32;100.00;103303.78;5226846;28;20399;-78
2024/01/12 09:37:23;;;;;;;19.00;11.30;;;;;;;3.35;100.00;103303.75;5228998;28;20029;-77
2024/01/12 09:39:55;;;;;;;20.98;11.77;;;;;;;3.33;100.00;103308.09;5226936;28;20228;-77
2024/01/12 09:42:31;;;;;;;24.13;11.10;;;;;;;3.44;100.00;103316.56;5227816;28;20040;-78
2024/01/12 09:45:03;;;;;;;16.23;10.43;;;;;;;3.38;100.00;103312.34;5225720;28;20060;-77
2024/01/12 09:47:36;;;;;;;19.08;10.55;;;;;;;3.42;100.00;103307.97;5227602;28;20501;-77
2024/01/12 09:50:10;;;;;;;18.05;10.75;;;;;;;3.51;100.00;103318.19;5228487;28;20056;-78
2024/01/12 09:52:42;;;;;;;25.35;11.70;;;;;;;3.48;100.00;103305.25;5229280;28;20037;-78
2024/01/12 09:55:14;;;;;;;19.38;10.93;;;;;;;3.49;100.00;103304.41;5229014;28;20139;-78
2024/01/12 09:57:47;;;;;;;18.10;10.90;;;;;;;3.49;100.00;103304.41;5229914;28;20509;-77
2024/01/12 10:00:21;;;;;;;23.30;11.43;;;;;;;3.58;100.00;103309.44;5229855;28;20406;-77
2024/01/12 10:02:53;;;;;;;24.25;11.27;;;;;;;3.57;100.00;103306.88;5229960;28;20033;-77
2024/01/12 10:05:25;;;;;;;19.57;9.97;;;;;;;3.65;100.00;103305.00;5231128;28;20029;-77
2024/01/12 10:07:57;;;;;;;18.35;10.75;;;;;;;3.66;100.00;103297.19;5228251;28;20299;-78
2024/01/12 10:10:29;;;;;;;16.55;10.57;;;;;;;3.69;100.00;103291.13;5229801;28;20633;-78
2024/01/12 10:13:02;;;;;;;19.80;9.73;;;;;;;3.74;100.00;103293.63;5230191;28;20064;-78
2024/01/12 10:15:41;;;;;;;27.77;10.23;;;;;;;3.87;100.00;103290.81;5227084;28;20037;-78
2024/01/12 10:18:13;;;;;;;15.50;9.90;;;;;;;3.78;100.00;103295.28;5226937;28;20029;-77
2024/01/12 10:20:44;;;;;;;18.85;11.07;;;;;;;3.81;100.00;103300.41;5228993;28;20083;-78
2024/01/12 10:23:20;;;;;;;21.88;10.90;;;;;;;3.88;100.00;103289.06;5229880;28;20394;-77
2024/01/12 10:25:57;;;;;;;24.30;10.95;;;;;;;3.94;100.00;103301.94;5225234;28;20033;-77
2024/01/12 10:28:32;;;;;;;22.30;9.98;;;;;;;3.99;100.00;103305.28;5228143;28;20025;-78
2024/01/12 10:31:08;;;;;;;17.85;10.18;;;;;;;3.94;100.00;103306.25;5226967;28;20041;-77
2024/01/12 10:33:41;;;;;;;19.45;10.73;;;;;;;3.93;100.00;103299.34;5225751;28;20033;-77
2024/01/12 10:36:23;;;;;;;23.55;11.23;;;;;;;4.09;100.00;103296.47;5222360;28;20036;-78
2024/01/12 10:38:58;;;;;;;17.38;10.32;;;;;;;4.03;100.00;103303.50;5224978;28;20040;-77
2024/01/12 10:41:33;;;;;;;20.48;10.18;;;;;;;4.08;100.00;103278.31;5227678;28;20033;-77
2024/01/12 10:44:05;;;;;;;21.70;9.52;;;;;;;4.12;100.00;103282.56;5227100;28;20447;-77
2024/01/12 10:46:44;;;;;;;18.23;9.45;;;;;;;4.23;100.00;103278.03;5227199;28;20048;-77
2024/01/12 10:49:18;;;;;;;20.63;9.68;;;;;;;4.12;100.00;103286.00;5226307;28;20045;-78
2024/01/12 10:52:09;;;;;;;19.55;10.27;;;;;;;4.15;100.00;103282.50;5228723;28;20037;-78
2024/01/12 10:54:49;;;;;;;19.58;10.13;;;;;;;4.17;100.00;103285.06;5228982;28;20048;-77
2024/01/12 10:57:22;;;;;;;18.77;10.50;;;;;;;4.16;100.00;103276.44;5230273;28;20040;-78
2024/01/12 10:59:56;;;;;;;17.58;10.57;;;;;;;4.17;100.00;103275.56;5229394;28;20029;-78
2024/01/12 11:02:28;;;;;;;22.20;10.63;;;;;;;4.15;100.00;103272.13;5225876;28;20048;-78
2024/01/12 11:05:01;;;;;;;23.42;9.48;;;;;;;4.13;100.00;103276.53;5224910;28;20040;-76
2024/01/12 11:07:34;;;;;;;20.67;10.30;;;;;;;4.18;100.00;103272.09;5229822;28;20037;-78
2024/01/12 11:10:07;;;;;;;19.83;10.05;;;;;;;4.15;100.00;103275.59;5222207;28;20402;-78
2024/01/12 11:12:41;;;;;;;21.65;10.40;;;;;;;4.23;100.00;103275.44;5230549;28;20402;-78
2024/01/12 11:15:13;;;;;;;19.45;10.55;;;;;;;4.19;100.00;103268.59;5224690;28;20037;-78
2024/01/12 11:17:45;;;;;;;16.65;9.05;;;;;;;4.19;100.00;103258.22;5228983;28;20394;-77
2024/01/12 11:20:19;;;;;;;15.60;8.60;;;;;;;4.23;100.00;103267.66;5226655;28;20025;-78
2024/01/12 11:22:52;;;;;;;19.73;10.52;;;;;;;4.22;100.00;103257.31;5227482;28;20063;-78
2024/01/12 11:25:24;;;;;;;19.77;11.13;;;;;;;4.25;100.00;103255.53;5226453;28;20037;-78
2024/01/12 11:27:56;;;;;;;22.38;9.93;;;;;;;4.32;100.00;103262.31;5228649;28;20196;-78
2024/01/12 11:30:29;;;;;;;18.30;10.07;;;;;;;4.32;100.00;103261.44;5226974;28;20040;-78
2024/01/12 11:33:04;;;;;;;17.27;10.05;;;;;;;4.32;100.00;103271.84;5229082;28;20505;-78